sensor_id;sensor_type;location;lat;lon;timestamp;P1;durP1;ratioP1;P2;durP2;ratioP2
54983;SDS011;40884;53.562;9.940;2022-07-01T00:00:59;9.63;;;3.77;;
54983;SDS011;40884;53.562;9.940;2022-07-01T00:01:59;6.33;;;3.80;;
54983;SDS011;40884;53.562;9.940;2022-07-01T00:02:59;5.83;;;3.73;;
54983;SDS011;40884;53.562;9.940;2022-07-01T00:04:00;3.87;;;3.20;;
54983;SDS011;40884;53.562;9.940;2022-07-01T00:05:00;3.73;;;2.73;;
54983;SDS011;40884;53.562;9.940;2022-07-01T00:06:18;5.30;;;3.00;;
54983;SDS011;40884;53.562;9.940;2022-07-01T00:07:18;2.93;;;2.63;;
54983;SDS011;40884;53.562;9.940;2022-07-01T00:08:18;7.47;;;2.10;;
54983;SDS011;40884;53.562;9.940;2022-07-01T00:09:19;5.17;;;2.40;;
54983;SDS011;40884;53.562;9.940;2022-07-01T00:10:19;4.53;;;2.67;;
54983;SDS011;40884;53.562;9.940;2022-07-01T00:11:19;3.93;;;2.63;;
54983;SDS011;40884;53.562;9.940;2022-07-01T00:12:19;4.93;;;3.10;;
54983;SDS011;40884;53.562;9.940;2022-07-01T00:13:20;5.80;;;3.03;;
54983;SDS011;40884;53.562;9.940;2022-07-01T00:14:20;7.13;;;3.10;;
54983;SDS011;40884;53.562;9.940;2022-07-01T00:15:20;7.63;;;3.10;;
54983;SDS011;40884;53.562;9.940;2022-07-01T00:16:20;9.27;;;3.30;;
54983;SDS011;40884;53.562;9.940;2022-07-01T00:17:20;6.60;;;2.67;;
54983;SDS011;40884;53.562;9.940;2022-07-01T00:18:20;4.83;;;3.07;;
54983;SDS011;40884;53.562;9.940;2022-07-01T00:19:20;5.07;;;2.73;;
54983;SDS011;40884;53.562;9.940;2022-07-01T00:20:21;4.80;;;2.77;;
54983;SDS011;40884;53.562;9.940;2022-07-01T00:21:21;5.83;;;3.17;;
54983;SDS011;40884;53.562;9.940;2022-07-01T00:22:21;5.40;;;2.73;;
54983;SDS011;40884;53.562;9.940;2022-07-01T00:23:21;6.80;;;3.00;;
54983;SDS011;40884;53.562;9.940;2022-07-01T00:24:21;4.73;;;3.13;;
54983;SDS011;40884;53.562;9.940;2022-07-01T00:25:21;6.07;;;3.03;;
54983;SDS011;40884;53.562;9.940;2022-07-01T00:26:21;7.77;;;3.40;;
54983;SDS011;40884;53.562;9.940;2022-07-01T00:27:21;8.93;;;3.67;;
54983;SDS011;40884;53.562;9.940;2022-07-01T00:28:21;9.67;;;3.77;;
54983;SDS011;40884;53.562;9.940;2022-07-01T00:29:21;10.57;;;3.90;;
54983;SDS011;40884;53.562;9.940;2022-07-01T00:30:22;8.77;;;3.67;;
54983;SDS011;40884;53.562;9.940;2022-07-01T00:31:22;8.67;;;3.70;;
54983;SDS011;40884;53.562;9.940;2022-07-01T00:32:22;6.57;;;4.00;;
54983;SDS011;40884;53.562;9.940;2022-07-01T00:33:22;7.80;;;3.47;;
54983;SDS011;40884;53.562;9.940;2022-07-01T00:34:22;9.87;;;4.17;;
54983;SDS011;40884;53.562;9.940;2022-07-01T00:35:22;12.13;;;4.07;;
54983;SDS011;40884;53.562;9.940;2022-07-01T00:36:22;9.23;;;3.83;;
54983;SDS011;40884;53.562;9.940;2022-07-01T00:37:22;8.47;;;3.77;;
54983;SDS011;40884;53.562;9.940;2022-07-01T00:38:22;6.07;;;3.30;;
54983;SDS011;40884;53.562;9.940;2022-07-01T00:39:23;5.73;;;3.77;;
54983;SDS011;40884;53.562;9.940;2022-07-01T00:40:23;10.23;;;4.17;;
54983;SDS011;40884;53.562;9.940;2022-07-01T00:41:23;8.93;;;4.07;;
54983;SDS011;40884;53.562;9.940;2022-07-01T00:42:24;10.30;;;4.33;;
54983;SDS011;40884;53.562;9.940;2022-07-01T00:43:24;8.90;;;4.23;;
54983;SDS011;40884;53.562;9.940;2022-07-01T00:44:24;7.77;;;4.23;;
54983;SDS011;40884;53.562;9.940;2022-07-01T00:45:24;8.20;;;4.07;;
54983;SDS011;40884;53.562;9.940;2022-07-01T00:46:24;8.57;;;4.73;;
54983;SDS011;40884;53.562;9.940;2022-07-01T00:47:25;13.80;;;5.10;;
54983;SDS011;40884;53.562;9.940;2022-07-01T00:48:25;9.57;;;5.13;;
54983;SDS011;40884;53.562;9.940;2022-07-01T00:49:25;10.87;;;4.63;;
54983;SDS011;40884;53.562;9.940;2022-07-01T00:50:25;11.70;;;4.87;;
54983;SDS011;40884;53.562;9.940;2022-07-01T00:51:25;12.57;;;5.20;;
54983;SDS011;40884;53.562;9.940;2022-07-01T00:52:25;9.10;;;4.63;;
54983;SDS011;40884;53.562;9.940;2022-07-01T00:53:26;9.80;;;4.43;;
54983;SDS011;40884;53.562;9.940;2022-07-01T00:54:26;7.80;;;4.23;;
54983;SDS011;40884;53.562;9.940;2022-07-01T00:55:27;7.50;;;4.40;;
54983;SDS011;40884;53.562;9.940;2022-07-01T00:56:27;7.93;;;4.70;;
54983;SDS011;40884;53.562;9.940;2022-07-01T00:57:29;8.23;;;4.63;;
54983;SDS011;40884;53.562;9.940;2022-07-01T00:58:30;11.00;;;5.00;;
54983;SDS011;40884;53.562;9.940;2022-07-01T00:59:30;13.50;;;5.13;;
54983;SDS011;40884;53.562;9.940;2022-07-01T01:00:30;9.73;;;5.23;;
54983;SDS011;40884;53.562;9.940;2022-07-01T01:01:30;12.70;;;5.10;;
54983;SDS011;40884;53.562;9.940;2022-07-01T01:02:31;9.73;;;5.10;;
54983;SDS011;40884;53.562;9.940;2022-07-01T01:03:31;10.00;;;5.50;;
54983;SDS011;40884;53.562;9.940;2022-07-01T01:04:32;10.63;;;5.00;;
54983;SDS011;40884;53.562;9.940;2022-07-01T01:05:32;8.77;;;5.10;;
54983;SDS011;40884;53.562;9.940;2022-07-01T01:06:33;9.13;;;4.87;;
54983;SDS011;40884;53.562;9.940;2022-07-01T01:07:33;8.70;;;5.10;;
54983;SDS011;40884;53.562;9.940;2022-07-01T01:08:33;10.57;;;5.20;;
54983;SDS011;40884;53.562;9.940;2022-07-01T01:09:34;7.77;;;5.23;;
54983;SDS011;40884;53.562;9.940;2022-07-01T01:10:35;13.13;;;5.80;;
54983;SDS011;40884;53.562;9.940;2022-07-01T01:11:35;8.47;;;5.43;;
54983;SDS011;40884;53.562;9.940;2022-07-01T01:12:35;9.60;;;5.13;;
54983;SDS011;40884;53.562;9.940;2022-07-01T01:13:36;8.97;;;5.10;;
54983;SDS011;40884;53.562;9.940;2022-07-01T01:14:48;13.07;;;5.90;;
54983;SDS011;40884;53.562;9.940;2022-07-01T01:15:48;9.70;;;5.17;;
54983;SDS011;40884;53.562;9.940;2022-07-01T01:16:48;9.67;;;5.23;;
54983;SDS011;40884;53.562;9.940;2022-07-01T01:17:49;7.37;;;4.50;;
54983;SDS011;40884;53.562;9.940;2022-07-01T01:18:49;7.53;;;4.73;;
54983;SDS011;40884;53.562;9.940;2022-07-01T01:19:50;9.73;;;5.37;;
54983;SDS011;40884;53.562;9.940;2022-07-01T01:20:52;6.80;;;4.50;;
54983;SDS011;40884;53.562;9.940;2022-07-01T01:21:52;8.33;;;5.40;;
54983;SDS011;40884;53.562;9.940;2022-07-01T01:22:53;6.90;;;4.80;;
54983;SDS011;40884;53.562;9.940;2022-07-01T01:23:53;9.90;;;5.10;;
54983;SDS011;40884;53.562;9.940;2022-07-01T01:24:53;8.73;;;5.00;;
54983;SDS011;40884;53.562;9.940;2022-07-01T01:25:53;7.63;;;4.73;;
54983;SDS011;40884;53.562;9.940;2022-07-01T01:26:53;6.67;;;4.70;;
54983;SDS011;40884;53.562;9.940;2022-07-01T01:27:53;6.63;;;4.47;;
54983;SDS011;40884;53.562;9.940;2022-07-01T01:28:53;6.37;;;4.27;;
54983;SDS011;40884;53.562;9.940;2022-07-01T01:29:54;8.63;;;5.00;;
54983;SDS011;40884;53.562;9.940;2022-07-01T01:30:54;6.90;;;4.73;;
54983;SDS011;40884;53.562;9.940;2022-07-01T01:31:54;8.27;;;4.87;;
54983;SDS011;40884;53.562;9.940;2022-07-01T01:32:54;4.53;;;3.90;;
54983;SDS011;40884;53.562;9.940;2022-07-01T01:33:54;8.73;;;4.70;;
54983;SDS011;40884;53.562;9.940;2022-07-01T01:34:54;7.97;;;4.67;;
54983;SDS011;40884;53.562;9.940;2022-07-01T01:35:54;7.23;;;4.73;;
54983;SDS011;40884;53.562;9.940;2022-07-01T01:36:54;7.83;;;5.20;;
54983;SDS011;40884;53.562;9.940;2022-07-01T01:37:55;6.30;;;5.30;;
54983;SDS011;40884;53.562;9.940;2022-07-01T01:38:55;7.63;;;5.23;;
54983;SDS011;40884;53.562;9.940;2022-07-01T01:39:55;9.00;;;5.10;;
54983;SDS011;40884;53.562;9.940;2022-07-01T01:40:55;6.20;;;4.90;;
54983;SDS011;40884;53.562;9.940;2022-07-01T01:41:55;7.17;;;5.00;;
54983;SDS011;40884;53.562;9.940;2022-07-01T01:42:55;7.70;;;5.13;;
54983;SDS011;40884;53.562;9.940;2022-07-01T01:43:55;8.70;;;5.60;;
54983;SDS011;40884;53.562;9.940;2022-07-01T01:44:55;7.27;;;5.33;;
54983;SDS011;40884;53.562;9.940;2022-07-01T01:45:56;8.87;;;4.97;;
54983;SDS011;40884;53.562;9.940;2022-07-01T01:46:56;7.90;;;5.07;;
54983;SDS011;40884;53.562;9.940;2022-07-01T01:47:56;6.23;;;5.00;;
54983;SDS011;40884;53.562;9.940;2022-07-01T01:48:57;8.60;;;5.27;;
54983;SDS011;40884;53.562;9.940;2022-07-01T01:49:57;6.83;;;5.40;;
54983;SDS011;40884;53.562;9.940;2022-07-01T01:50:57;7.07;;;5.30;;
54983;SDS011;40884;53.562;9.940;2022-07-01T01:51:58;6.77;;;4.07;;
54983;SDS011;40884;53.562;9.940;2022-07-01T01:52:58;8.83;;;5.50;;
54983;SDS011;40884;53.562;9.940;2022-07-01T01:53:58;6.17;;;5.00;;
54983;SDS011;40884;53.562;9.940;2022-07-01T01:54:59;5.90;;;4.50;;
54983;SDS011;40884;53.562;9.940;2022-07-01T01:55:59;5.13;;;4.63;;
54983;SDS011;40884;53.562;9.940;2022-07-01T01:56:59;6.30;;;4.77;;
54983;SDS011;40884;53.562;9.940;2022-07-01T01:57:59;5.93;;;4.97;;
54983;SDS011;40884;53.562;9.940;2022-07-01T01:58:59;6.43;;;4.20;;
54983;SDS011;40884;53.562;9.940;2022-07-01T02:00:00;5.13;;;4.20;;
54983;SDS011;40884;53.562;9.940;2022-07-01T02:01:00;8.60;;;4.40;;
54983;SDS011;40884;53.562;9.940;2022-07-01T02:02:00;6.70;;;4.40;;
54983;SDS011;40884;53.562;9.940;2022-07-01T02:03:00;6.87;;;4.40;;
54983;SDS011;40884;53.562;9.940;2022-07-01T02:04:00;6.97;;;4.93;;
54983;SDS011;40884;53.562;9.940;2022-07-01T02:05:00;7.60;;;4.90;;
54983;SDS011;40884;53.562;9.940;2022-07-01T02:06:01;9.10;;;4.90;;
54983;SDS011;40884;53.562;9.940;2022-07-01T02:07:01;7.17;;;5.20;;
54983;SDS011;40884;53.562;9.940;2022-07-01T02:08:01;7.13;;;5.27;;
54983;SDS011;40884;53.562;9.940;2022-07-01T02:09:01;5.37;;;4.83;;
54983;SDS011;40884;53.562;9.940;2022-07-01T02:10:02;7.13;;;5.00;;
54983;SDS011;40884;53.562;9.940;2022-07-01T02:11:03;6.00;;;4.90;;
54983;SDS011;40884;53.562;9.940;2022-07-01T02:12:03;6.90;;;4.67;;
54983;SDS011;40884;53.562;9.940;2022-07-01T02:13:03;5.17;;;4.63;;
54983;SDS011;40884;53.562;9.940;2022-07-01T02:14:03;5.70;;;4.30;;
54983;SDS011;40884;53.562;9.940;2022-07-01T02:15:04;5.87;;;4.83;;
54983;SDS011;40884;53.562;9.940;2022-07-01T02:16:04;7.60;;;5.23;;
54983;SDS011;40884;53.562;9.940;2022-07-01T02:17:04;5.60;;;4.93;;
54983;SDS011;40884;53.562;9.940;2022-07-01T02:18:04;8.53;;;4.97;;
54983;SDS011;40884;53.562;9.940;2022-07-01T02:19:04;7.20;;;4.43;;
54983;SDS011;40884;53.562;9.940;2022-07-01T02:20:04;7.43;;;5.20;;
54983;SDS011;40884;53.562;9.940;2022-07-01T02:21:05;7.70;;;5.13;;
54983;SDS011;40884;53.562;9.940;2022-07-01T02:22:05;6.40;;;5.13;;
54983;SDS011;40884;53.562;9.940;2022-07-01T02:23:05;7.03;;;5.20;;
54983;SDS011;40884;53.562;9.940;2022-07-01T02:24:05;6.70;;;5.00;;
54983;SDS011;40884;53.562;9.940;2022-07-01T02:25:06;6.70;;;5.27;;
54983;SDS011;40884;53.562;9.940;2022-07-01T02:26:06;7.43;;;5.40;;
54983;SDS011;40884;53.562;9.940;2022-07-01T02:27:06;6.07;;;5.10;;
54983;SDS011;40884;53.562;9.940;2022-07-01T02:28:06;6.30;;;5.23;;
54983;SDS011;40884;53.562;9.940;2022-07-01T02:29:06;7.40;;;5.00;;
54983;SDS011;40884;53.562;9.940;2022-07-01T02:30:06;7.57;;;5.20;;
54983;SDS011;40884;53.562;9.940;2022-07-01T02:31:07;5.63;;;5.10;;
54983;SDS011;40884;53.562;9.940;2022-07-01T02:32:07;6.10;;;5.30;;
54983;SDS011;40884;53.562;9.940;2022-07-01T02:33:07;6.80;;;5.67;;
54983;SDS011;40884;53.562;9.940;2022-07-01T02:34:07;6.73;;;5.57;;
54983;SDS011;40884;53.562;9.940;2022-07-01T02:35:08;6.70;;;5.03;;
54983;SDS011;40884;53.562;9.940;2022-07-01T02:36:08;7.50;;;5.30;;
54983;SDS011;40884;53.562;9.940;2022-07-01T02:37:08;6.30;;;5.07;;
54983;SDS011;40884;53.562;9.940;2022-07-01T02:38:08;8.53;;;5.13;;
54983;SDS011;40884;53.562;9.940;2022-07-01T02:39:08;9.83;;;5.63;;
54983;SDS011;40884;53.562;9.940;2022-07-01T02:40:09;7.93;;;4.97;;
54983;SDS011;40884;53.562;9.940;2022-07-01T02:41:09;5.40;;;4.90;;
54983;SDS011;40884;53.562;9.940;2022-07-01T02:42:09;9.43;;;5.70;;
54983;SDS011;40884;53.562;9.940;2022-07-01T02:43:09;6.57;;;5.37;;
54983;SDS011;40884;53.562;9.940;2022-07-01T02:44:09;8.70;;;5.43;;
54983;SDS011;40884;53.562;9.940;2022-07-01T02:45:09;7.53;;;4.70;;
54983;SDS011;40884;53.562;9.940;2022-07-01T02:46:10;6.50;;;5.00;;
54983;SDS011;40884;53.562;9.940;2022-07-01T02:47:10;9.17;;;5.00;;
54983;SDS011;40884;53.562;9.940;2022-07-01T02:48:10;5.97;;;5.30;;
54983;SDS011;40884;53.562;9.940;2022-07-01T02:49:10;16.47;;;6.10;;
54983;SDS011;40884;53.562;9.940;2022-07-01T02:50:11;7.80;;;5.60;;
54983;SDS011;40884;53.562;9.940;2022-07-01T02:51:11;6.87;;;5.03;;
54983;SDS011;40884;53.562;9.940;2022-07-01T02:52:11;7.47;;;5.90;;
54983;SDS011;40884;53.562;9.940;2022-07-01T02:53:11;6.20;;;5.17;;
54983;SDS011;40884;53.562;9.940;2022-07-01T02:54:11;7.67;;;5.63;;
54983;SDS011;40884;53.562;9.940;2022-07-01T02:55:12;8.57;;;5.83;;
54983;SDS011;40884;53.562;9.940;2022-07-01T02:56:12;7.30;;;6.00;;
54983;SDS011;40884;53.562;9.940;2022-07-01T02:57:12;6.73;;;6.03;;
54983;SDS011;40884;53.562;9.940;2022-07-01T02:58:13;6.83;;;5.80;;
54983;SDS011;40884;53.562;9.940;2022-07-01T02:59:13;7.33;;;5.67;;
54983;SDS011;40884;53.562;9.940;2022-07-01T03:00:13;6.47;;;5.43;;
54983;SDS011;40884;53.562;9.940;2022-07-01T03:01:13;8.30;;;5.90;;
54983;SDS011;40884;53.562;9.940;2022-07-01T03:02:14;6.83;;;5.20;;
54983;SDS011;40884;53.562;9.940;2022-07-01T03:03:14;5.73;;;5.23;;
54983;SDS011;40884;53.562;9.940;2022-07-01T03:04:14;7.13;;;5.00;;
54983;SDS011;40884;53.562;9.940;2022-07-01T03:05:14;5.77;;;4.87;;
54983;SDS011;40884;53.562;9.940;2022-07-01T03:06:14;5.87;;;4.90;;
54983;SDS011;40884;53.562;9.940;2022-07-01T03:07:14;7.10;;;4.90;;
54983;SDS011;40884;53.562;9.940;2022-07-01T03:08:15;5.80;;;4.90;;
54983;SDS011;40884;53.562;9.940;2022-07-01T03:09:15;8.23;;;4.40;;
54983;SDS011;40884;53.562;9.940;2022-07-01T03:10:15;7.47;;;4.83;;
54983;SDS011;40884;53.562;9.940;2022-07-01T03:11:15;6.57;;;4.70;;
54983;SDS011;40884;53.562;9.940;2022-07-01T03:12:16;5.13;;;4.57;;
54983;SDS011;40884;53.562;9.940;2022-07-01T03:13:16;4.83;;;4.33;;
54983;SDS011;40884;53.562;9.940;2022-07-01T03:14:16;6.30;;;3.97;;
54983;SDS011;40884;53.562;9.940;2022-07-01T03:15:16;5.43;;;4.03;;
54983;SDS011;40884;53.562;9.940;2022-07-01T03:16:16;4.30;;;3.90;;
54983;SDS011;40884;53.562;9.940;2022-07-01T03:17:17;5.43;;;4.23;;
54983;SDS011;40884;53.562;9.940;2022-07-01T03:18:17;4.60;;;4.20;;
54983;SDS011;40884;53.562;9.940;2022-07-01T03:19:17;4.57;;;3.87;;
54983;SDS011;40884;53.562;9.940;2022-07-01T03:20:17;5.67;;;4.33;;
54983;SDS011;40884;53.562;9.940;2022-07-01T03:21:17;6.60;;;4.10;;
54983;SDS011;40884;53.562;9.940;2022-07-01T03:22:18;3.97;;;3.57;;
54983;SDS011;40884;53.562;9.940;2022-07-01T03:23:18;3.97;;;3.67;;
54983;SDS011;40884;53.562;9.940;2022-07-01T03:24:18;4.80;;;4.30;;
54983;SDS011;40884;53.562;9.940;2022-07-01T03:25:18;4.13;;;3.73;;
54983;SDS011;40884;53.562;9.940;2022-07-01T03:26:18;5.40;;;4.60;;
54983;SDS011;40884;53.562;9.940;2022-07-01T03:27:18;6.50;;;5.30;;
54983;SDS011;40884;53.562;9.940;2022-07-01T03:28:19;5.97;;;5.30;;
54983;SDS011;40884;53.562;9.940;2022-07-01T03:29:19;6.57;;;6.00;;
54983;SDS011;40884;53.562;9.940;2022-07-01T03:30:19;6.20;;;5.60;;
54983;SDS011;40884;53.562;9.940;2022-07-01T03:31:19;7.70;;;5.70;;
54983;SDS011;40884;53.562;9.940;2022-07-01T03:32:19;7.23;;;6.10;;
54983;SDS011;40884;53.562;9.940;2022-07-01T03:33:19;7.53;;;6.83;;
54983;SDS011;40884;53.562;9.940;2022-07-01T03:34:19;7.70;;;7.00;;
54983;SDS011;40884;53.562;9.940;2022-07-01T03:35:20;10.60;;;8.30;;
54983;SDS011;40884;53.562;9.940;2022-07-01T03:36:20;8.27;;;7.47;;
54983;SDS011;40884;53.562;9.940;2022-07-01T03:37:20;8.73;;;7.93;;
54983;SDS011;40884;53.562;9.940;2022-07-01T03:38:20;10.00;;;9.00;;
54983;SDS011;40884;53.562;9.940;2022-07-01T03:39:21;10.90;;;9.80;;
54983;SDS011;40884;53.562;9.940;2022-07-01T03:40:21;9.93;;;9.03;;
54983;SDS011;40884;53.562;9.940;2022-07-01T03:41:21;10.53;;;9.57;;
54983;SDS011;40884;53.562;9.940;2022-07-01T03:42:21;10.47;;;9.47;;
54983;SDS011;40884;53.562;9.940;2022-07-01T03:43:21;11.27;;;10.17;;
54983;SDS011;40884;53.562;9.940;2022-07-01T03:44:21;11.90;;;10.77;;
54983;SDS011;40884;53.562;9.940;2022-07-01T03:45:21;11.37;;;10.20;;
54983;SDS011;40884;53.562;9.940;2022-07-01T03:46:21;10.23;;;9.33;;
54983;SDS011;40884;53.562;9.940;2022-07-01T03:47:21;10.53;;;9.53;;
54983;SDS011;40884;53.562;9.940;2022-07-01T03:48:23;10.00;;;9.00;;
54983;SDS011;40884;53.562;9.940;2022-07-01T03:49:23;9.13;;;8.23;;
54983;SDS011;40884;53.562;9.940;2022-07-01T03:50:24;10.17;;;9.13;;
54983;SDS011;40884;53.562;9.940;2022-07-01T03:51:24;9.70;;;8.70;;
54983;SDS011;40884;53.562;9.940;2022-07-01T03:52:24;8.20;;;7.43;;
54983;SDS011;40884;53.562;9.940;2022-07-01T03:53:24;9.30;;;8.20;;
54983;SDS011;40884;53.562;9.940;2022-07-01T03:54:24;10.57;;;8.70;;
54983;SDS011;40884;53.562;9.940;2022-07-01T03:55:25;9.90;;;8.23;;
54983;SDS011;40884;53.562;9.940;2022-07-01T03:56:25;9.60;;;8.20;;
54983;SDS011;40884;53.562;9.940;2022-07-01T03:57:25;9.17;;;8.27;;
54983;SDS011;40884;53.562;9.940;2022-07-01T03:58:25;10.53;;;8.50;;
54983;SDS011;40884;53.562;9.940;2022-07-01T03:59:25;8.97;;;8.07;;
54983;SDS011;40884;53.562;9.940;2022-07-01T04:00:26;8.93;;;7.43;;
54983;SDS011;40884;53.562;9.940;2022-07-01T04:01:26;9.30;;;8.27;;
54983;SDS011;40884;53.562;9.940;2022-07-01T04:02:26;8.33;;;7.53;;
54983;SDS011;40884;53.562;9.940;2022-07-01T04:03:26;8.97;;;8.07;;
54983;SDS011;40884;53.562;9.940;2022-07-01T04:04:27;8.30;;;7.57;;
54983;SDS011;40884;53.562;9.940;2022-07-01T04:05:27;8.53;;;7.63;;
54983;SDS011;40884;53.562;9.940;2022-07-01T04:06:27;7.53;;;6.90;;
54983;SDS011;40884;53.562;9.940;2022-07-01T04:07:27;7.27;;;6.67;;
54983;SDS011;40884;53.562;9.940;2022-07-01T04:08:28;8.37;;;6.60;;
54983;SDS011;40884;53.562;9.940;2022-07-01T04:09:28;8.97;;;8.07;;
54983;SDS011;40884;53.562;9.940;2022-07-01T04:10:29;8.30;;;6.10;;
54983;SDS011;40884;53.562;9.940;2022-07-01T04:11:31;6.97;;;6.37;;
54983;SDS011;40884;53.562;9.940;2022-07-01T04:12:31;7.13;;;6.50;;
54983;SDS011;40884;53.562;9.940;2022-07-01T04:13:31;7.70;;;7.00;;
54983;SDS011;40884;53.562;9.940;2022-07-01T04:14:31;7.83;;;7.13;;
54983;SDS011;40884;53.562;9.940;2022-07-01T04:15:31;8.37;;;7.50;;
54983;SDS011;40884;53.562;9.940;2022-07-01T04:16:32;8.10;;;7.30;;
54983;SDS011;40884;53.562;9.940;2022-07-01T04:17:32;7.90;;;7.10;;
54983;SDS011;40884;53.562;9.940;2022-07-01T04:18:32;7.40;;;6.70;;
54983;SDS011;40884;53.562;9.940;2022-07-01T04:19:33;7.20;;;6.60;;
54983;SDS011;40884;53.562;9.940;2022-07-01T04:20:33;7.97;;;7.27;;
54983;SDS011;40884;53.562;9.940;2022-07-01T04:21:33;7.80;;;7.00;;
54983;SDS011;40884;53.562;9.940;2022-07-01T04:22:33;7.00;;;6.40;;
54983;SDS011;40884;53.562;9.940;2022-07-01T04:23:33;6.83;;;6.13;;
54983;SDS011;40884;53.562;9.940;2022-07-01T04:24:34;6.47;;;5.87;;
54983;SDS011;40884;53.562;9.940;2022-07-01T04:25:34;6.57;;;5.93;;
54983;SDS011;40884;53.562;9.940;2022-07-01T04:26:34;5.87;;;5.37;;
54983;SDS011;40884;53.562;9.940;2022-07-01T04:27:34;6.67;;;6.07;;
54983;SDS011;40884;53.562;9.940;2022-07-01T04:28:34;6.53;;;5.93;;
54983;SDS011;40884;53.562;9.940;2022-07-01T04:29:35;6.60;;;5.90;;
54983;SDS011;40884;53.562;9.940;2022-07-01T04:30:35;5.77;;;5.27;;
54983;SDS011;40884;53.562;9.940;2022-07-01T04:31:35;6.00;;;5.50;;
54983;SDS011;40884;53.562;9.940;2022-07-01T04:32:35;6.43;;;5.67;;
54983;SDS011;40884;53.562;9.940;2022-07-01T04:33:36;5.57;;;5.07;;
54983;SDS011;40884;53.562;9.940;2022-07-01T04:34:36;5.40;;;5.00;;
54983;SDS011;40884;53.562;9.940;2022-07-01T04:35:36;5.23;;;4.73;;
54983;SDS011;40884;53.562;9.940;2022-07-01T04:36:36;5.80;;;5.30;;
54983;SDS011;40884;53.562;9.940;2022-07-01T04:37:37;5.90;;;5.40;;
54983;SDS011;40884;53.562;9.940;2022-07-01T04:38:37;6.03;;;5.53;;
54983;SDS011;40884;53.562;9.940;2022-07-01T04:39:37;6.07;;;5.57;;
54983;SDS011;40884;53.562;9.940;2022-07-01T04:40:37;5.43;;;4.90;;
54983;SDS011;40884;53.562;9.940;2022-07-01T04:41:37;4.60;;;4.13;;
54983;SDS011;40884;53.562;9.940;2022-07-01T04:42:38;5.67;;;5.10;;
54983;SDS011;40884;53.562;9.940;2022-07-01T04:43:38;6.10;;;5.40;;
54983;SDS011;40884;53.562;9.940;2022-07-01T04:44:38;5.37;;;4.47;;
54983;SDS011;40884;53.562;9.940;2022-07-01T04:45:38;6.20;;;5.37;;
54983;SDS011;40884;53.562;9.940;2022-07-01T04:46:38;6.00;;;5.50;;
54983;SDS011;40884;53.562;9.940;2022-07-01T04:47:38;6.63;;;6.03;;
54983;SDS011;40884;53.562;9.940;2022-07-01T04:48:38;6.00;;;5.47;;
54983;SDS011;40884;53.562;9.940;2022-07-01T04:49:39;6.13;;;5.60;;
54983;SDS011;40884;53.562;9.940;2022-07-01T04:50:39;7.00;;;5.83;;
54983;SDS011;40884;53.562;9.940;2022-07-01T04:51:39;6.87;;;6.17;;
54983;SDS011;40884;53.562;9.940;2022-07-01T04:52:39;8.43;;;6.33;;
54983;SDS011;40884;53.562;9.940;2022-07-01T04:53:39;8.20;;;6.63;;
54983;SDS011;40884;53.562;9.940;2022-07-01T04:54:39;7.43;;;6.20;;
54983;SDS011;40884;53.562;9.940;2022-07-01T04:55:39;7.90;;;6.00;;
54983;SDS011;40884;53.562;9.940;2022-07-01T04:56:39;7.00;;;5.60;;
54983;SDS011;40884;53.562;9.940;2022-07-01T04:57:40;5.57;;;4.93;;
54983;SDS011;40884;53.562;9.940;2022-07-01T04:58:40;6.33;;;5.20;;
54983;SDS011;40884;53.562;9.940;2022-07-01T04:59:40;6.23;;;4.70;;
54983;SDS011;40884;53.562;9.940;2022-07-01T05:00:40;7.00;;;4.67;;
54983;SDS011;40884;53.562;9.940;2022-07-01T05:01:41;7.33;;;5.97;;
54983;SDS011;40884;53.562;9.940;2022-07-01T05:02:41;6.57;;;4.77;;
54983;SDS011;40884;53.562;9.940;2022-07-01T05:03:41;7.63;;;5.23;;
54983;SDS011;40884;53.562;9.940;2022-07-01T05:04:41;11.50;;;6.57;;
54983;SDS011;40884;53.562;9.940;2022-07-01T05:05:41;9.50;;;6.00;;
54983;SDS011;40884;53.562;9.940;2022-07-01T05:06:41;9.00;;;5.60;;
54983;SDS011;40884;53.562;9.940;2022-07-01T05:07:41;8.90;;;5.67;;
54983;SDS011;40884;53.562;9.940;2022-07-01T05:08:41;7.83;;;5.17;;
54983;SDS011;40884;53.562;9.940;2022-07-01T05:09:42;9.57;;;5.73;;
54983;SDS011;40884;53.562;9.940;2022-07-01T05:10:42;8.87;;;5.33;;
54983;SDS011;40884;53.562;9.940;2022-07-01T05:11:42;8.97;;;5.17;;
54983;SDS011;40884;53.562;9.940;2022-07-01T05:12:42;10.27;;;5.17;;
54983;SDS011;40884;53.562;9.940;2022-07-01T05:13:42;10.53;;;6.07;;
54983;SDS011;40884;53.562;9.940;2022-07-01T05:14:42;10.23;;;5.03;;
54983;SDS011;40884;53.562;9.940;2022-07-01T05:15:42;10.07;;;5.03;;
54983;SDS011;40884;53.562;9.940;2022-07-01T05:16:42;13.00;;;6.03;;
54983;SDS011;40884;53.562;9.940;2022-07-01T05:17:43;7.43;;;4.83;;
54983;SDS011;40884;53.562;9.940;2022-07-01T05:18:43;10.17;;;4.90;;
54983;SDS011;40884;53.562;9.940;2022-07-01T05:19:43;10.07;;;4.73;;
54983;SDS011;40884;53.562;9.940;2022-07-01T05:20:43;12.10;;;5.27;;
54983;SDS011;40884;53.562;9.940;2022-07-01T05:21:43;12.30;;;5.23;;
54983;SDS011;40884;53.562;9.940;2022-07-01T05:22:43;10.23;;;4.97;;
54983;SDS011;40884;53.562;9.940;2022-07-01T05:23:43;12.50;;;5.80;;
54983;SDS011;40884;53.562;9.940;2022-07-01T05:24:43;8.97;;;5.30;;
54983;SDS011;40884;53.562;9.940;2022-07-01T05:25:44;13.63;;;6.30;;
54983;SDS011;40884;53.562;9.940;2022-07-01T05:26:44;13.30;;;6.00;;
54983;SDS011;40884;53.562;9.940;2022-07-01T05:27:44;11.07;;;5.07;;
54983;SDS011;40884;53.562;9.940;2022-07-01T05:28:44;10.53;;;5.20;;
54983;SDS011;40884;53.562;9.940;2022-07-01T05:29:44;9.70;;;4.80;;
54983;SDS011;40884;53.562;9.940;2022-07-01T05:30:44;9.47;;;4.23;;
54983;SDS011;40884;53.562;9.940;2022-07-01T05:31:44;8.93;;;4.40;;
54983;SDS011;40884;53.562;9.940;2022-07-01T05:32:45;8.63;;;4.00;;
54983;SDS011;40884;53.562;9.940;2022-07-01T05:33:45;10.17;;;4.83;;
54983;SDS011;40884;53.562;9.940;2022-07-01T05:34:45;9.33;;;4.27;;
54983;SDS011;40884;53.562;9.940;2022-07-01T05:35:45;9.17;;;3.77;;
54983;SDS011;40884;53.562;9.940;2022-07-01T05:36:45;7.33;;;3.80;;
54983;SDS011;40884;53.562;9.940;2022-07-01T05:37:45;7.17;;;3.10;;
54983;SDS011;40884;53.562;9.940;2022-07-01T05:38:45;6.33;;;3.00;;
54983;SDS011;40884;53.562;9.940;2022-07-01T05:39:45;4.83;;;3.03;;
54983;SDS011;40884;53.562;9.940;2022-07-01T05:40:46;7.63;;;3.43;;
54983;SDS011;40884;53.562;9.940;2022-07-01T05:41:46;4.67;;;2.90;;
54983;SDS011;40884;53.562;9.940;2022-07-01T05:42:46;5.87;;;3.13;;
54983;SDS011;40884;53.562;9.940;2022-07-01T05:43:46;6.70;;;3.00;;
54983;SDS011;40884;53.562;9.940;2022-07-01T05:44:46;5.73;;;3.00;;
54983;SDS011;40884;53.562;9.940;2022-07-01T05:45:46;4.20;;;2.87;;
54983;SDS011;40884;53.562;9.940;2022-07-01T05:46:46;6.23;;;2.80;;
54983;SDS011;40884;53.562;9.940;2022-07-01T05:47:47;5.53;;;2.80;;
54983;SDS011;40884;53.562;9.940;2022-07-01T05:48:47;5.97;;;2.40;;
54983;SDS011;40884;53.562;9.940;2022-07-01T05:49:47;5.20;;;2.63;;
54983;SDS011;40884;53.562;9.940;2022-07-01T05:50:47;6.00;;;2.57;;
54983;SDS011;40884;53.562;9.940;2022-07-01T05:51:47;5.33;;;2.20;;
54983;SDS011;40884;53.562;9.940;2022-07-01T05:52:47;6.30;;;2.90;;
54983;SDS011;40884;53.562;9.940;2022-07-01T05:53:47;4.60;;;2.47;;
54983;SDS011;40884;53.562;9.940;2022-07-01T05:54:47;4.73;;;2.50;;
54983;SDS011;40884;53.562;9.940;2022-07-01T05:55:48;4.53;;;2.20;;
54983;SDS011;40884;53.562;9.940;2022-07-01T05:56:48;5.90;;;2.27;;
54983;SDS011;40884;53.562;9.940;2022-07-01T05:57:50;8.93;;;2.77;;
54983;SDS011;40884;53.562;9.940;2022-07-01T05:58:50;8.27;;;2.40;;
54983;SDS011;40884;53.562;9.940;2022-07-01T05:59:51;3.67;;;2.13;;
54983;SDS011;40884;53.562;9.940;2022-07-01T06:00:51;4.57;;;2.00;;
54983;SDS011;40884;53.562;9.940;2022-07-01T06:01:51;5.57;;;2.00;;
54983;SDS011;40884;53.562;9.940;2022-07-01T06:02:51;4.87;;;2.00;;